sensor_id;sensor_type;location;lat;lon;timestamp;temperature;humidity
29813;DHT22;16707;48.106;11.548;2023-07-31T00:02:03;16.20;99.90
29813;DHT22;16707;48.106;11.548;2023-07-31T00:04:30;16.10;99.90
29813;DHT22;16707;48.106;11.548;2023-07-31T00:06:57;15.90;99.90
29813;DHT22;16707;48.106;11.548;2023-07-31T00:09:25;15.70;99.90
29813;DHT22;16707;48.106;11.548;2023-07-31T00:11:52;15.50;99.90
29813;DHT22;16707;48.106;11.548;2023-07-31T00:14:19;15.40;99.90
29813;DHT22;16707;48.106;11.548;2023-07-31T00:16:46;15.30;99.90
29813;DHT22;16707;48.106;11.548;2023-07-31T00:19:13;15.10;99.90
29813;DHT22;16707;48.106;11.548;2023-07-31T00:21:40;15.10;99.90
29813;DHT22;16707;48.106;11.548;2023-07-31T00:24:07;15.00;99.90
29813;DHT22;16707;48.106;11.548;2023-07-31T00:26:36;15.00;99.90
29813;DHT22;16707;48.106;11.548;2023-07-31T00:29:03;15.00;99.90
29813;DHT22;16707;48.106;11.548;2023-07-31T00:31:30;15.10;99.90
29813;DHT22;16707;48.106;11.548;2023-07-31T00:33:57;15.10;99.90
29813;DHT22;16707;48.106;11.548;2023-07-31T00:36:24;15.10;99.90
29813;DHT22;16707;48.106;11.548;2023-07-31T00:38:51;15.10;99.90
29813;DHT22;16707;48.106;11.548;2023-07-31T00:41:17;15.10;99.90
29813;DHT22;16707;48.106;11.548;2023-07-31T00:43:46;15.00;99.90
29813;DHT22;16707;48.106;11.548;2023-07-31T00:46:13;15.00;99.90
29813;DHT22;16707;48.106;11.548;2023-07-31T00:48:40;15.00;99.90
29813;DHT22;16707;48.106;11.548;2023-07-31T00:51:07;14.90;99.90
29813;DHT22;16707;48.106;11.548;2023-07-31T00:53:35;14.70;99.90
29813;DHT22;16707;48.106;11.548;2023-07-31T00:56:03;14.70;99.90
29813;DHT22;16707;48.106;11.548;2023-07-31T00:58:31;14.60;99.90
29813;DHT22;16707;48.106;11.548;2023-07-31T01:00:59;14.60;99.90
29813;DHT22;16707;48.106;11.548;2023-07-31T01:03:26;14.50;99.90
29813;DHT22;16707;48.106;11.548;2023-07-31T01:06:01;14.60;99.90
29813;DHT22;16707;48.106;11.548;2023-07-31T01:08:39;14.70;99.90
29813;DHT22;16707;48.106;11.548;2023-07-31T01:11:12;14.70;99.90
29813;DHT22;16707;48.106;11.548;2023-07-31T01:13:42;14.80;99.90
29813;DHT22;16707;48.106;11.548;2023-07-31T01:16:11;14.80;99.90
29813;DHT22;16707;48.106;11.548;2023-07-31T01:18:38;14.80;99.90
29813;DHT22;16707;48.106;11.548;2023-07-31T01:21:16;14.90;99.90
29813;DHT22;16707;48.106;11.548;2023-07-31T01:26:48;15.10;99.90
29813;DHT22;16707;48.106;11.548;2023-07-31T01:29:20;15.20;99.90
29813;DHT22;16707;48.106;11.548;2023-07-31T01:31:50;15.20;99.90
29813;DHT22;16707;48.106;11.548;2023-07-31T01:34:21;15.40;99.90
29813;DHT22;16707;48.106;11.548;2023-07-31T01:36:48;15.50;99.90
29813;DHT22;16707;48.106;11.548;2023-07-31T01:39:15;15.50;99.90
29813;DHT22;16707;48.106;11.548;2023-07-31T01:41:42;15.50;99.90
29813;DHT22;16707;48.106;11.548;2023-07-31T01:44:10;15.60;99.90
29813;DHT22;16707;48.106;11.548;2023-07-31T01:46:37;15.60;99.90
29813;DHT22;16707;48.106;11.548;2023-07-31T01:49:05;15.60;99.90
29813;DHT22;16707;48.106;11.548;2023-07-31T01:51:32;15.70;99.90
29813;DHT22;16707;48.106;11.548;2023-07-31T01:53:59;15.60;99.90
29813;DHT22;16707;48.106;11.548;2023-07-31T01:56:26;15.60;99.90
29813;DHT22;16707;48.106;11.548;2023-07-31T01:58:53;15.60;99.90
29813;DHT22;16707;48.106;11.548;2023-07-31T02:01:22;15.60;99.90
29813;DHT22;16707;48.106;11.548;2023-07-31T02:03:49;15.70;99.90
29813;DHT22;16707;48.106;11.548;2023-07-31T02:06:16;15.80;99.90
29813;DHT22;16707;48.106;11.548;2023-07-31T02:08:43;15.80;99.90
29813;DHT22;16707;48.106;11.548;2023-07-31T02:11:09;15.90;99.90
29813;DHT22;16707;48.106;11.548;2023-07-31T02:13:37;16.00;99.90
29813;DHT22;16707;48.106;11.548;2023-07-31T02:16:04;16.00;99.90
29813;DHT22;16707;48.106;11.548;2023-07-31T02:18:32;16.00;99.90
29813;DHT22;16707;48.106;11.548;2023-07-31T02:20:59;16.00;99.90
29813;DHT22;16707;48.106;11.548;2023-07-31T02:23:26;16.00;99.90
29813;DHT22;16707;48.106;11.548;2023-07-31T02:25:53;16.00;99.90
29813;DHT22;16707;48.106;11.548;2023-07-31T02:28:20;16.10;99.90
29813;DHT22;16707;48.106;11.548;2023-07-31T02:30:47;16.10;99.90
29813;DHT22;16707;48.106;11.548;2023-07-31T02:33:15;16.10;99.90
29813;DHT22;16707;48.106;11.548;2023-07-31T02:35:43;16.00;99.90
29813;DHT22;16707;48.106;11.548;2023-07-31T02:38:10;16.00;99.90
29813;DHT22;16707;48.106;11.548;2023-07-31T02:40:37;16.00;99.90
29813;DHT22;16707;48.106;11.548;2023-07-31T02:43:04;16.00;99.90
29813;DHT22;16707;48.106;11.548;2023-07-31T02:45:31;16.00;99.90
29813;DHT22;16707;48.106;11.548;2023-07-31T02:47:58;15.80;99.90
29813;DHT22;16707;48.106;11.548;2023-07-31T02:50:25;15.70;99.90
29813;DHT22;16707;48.106;11.548;2023-07-31T02:52:54;15.60;99.90
29813;DHT22;16707;48.106;11.548;2023-07-31T02:55:21;15.60;99.90
29813;DHT22;16707;48.106;11.548;2023-07-31T02:57:48;15.40;99.90
29813;DHT22;16707;48.106;11.548;2023-07-31T03:00:15;15.30;99.90
29813;DHT22;16707;48.106;11.548;2023-07-31T03:02:42;15.10;99.90
29813;DHT22;16707;48.106;11.548;2023-07-31T03:05:09;14.90;99.90
29813;DHT22;16707;48.106;11.548;2023-07-31T03:07:36;14.80;99.90
29813;DHT22;16707;48.106;11.548;2023-07-31T03:10:05;14.70;99.90
29813;DHT22;16707;48.106;11.548;2023-07-31T03:12:34;14.70;99.90
29813;DHT22;16707;48.106;11.548;2023-07-31T03:15:01;14.70;99.90
29813;DHT22;16707;48.106;11.548;2023-07-31T03:17:27;14.70;99.90
29813;DHT22;16707;48.106;11.548;2023-07-31T03:19:54;14.70;99.90
29813;DHT22;16707;48.106;11.548;2023-07-31T03:22:21;14.60;99.90
29813;DHT22;16707;48.106;11.548;2023-07-31T03:24:48;14.50;99.90
29813;DHT22;16707;48.106;11.548;2023-07-31T03:27:16;14.40;99.90
29813;DHT22;16707;48.106;11.548;2023-07-31T03:29:43;14.30;99.90
29813;DHT22;16707;48.106;11.548;2023-07-31T03:32:10;14.30;99.90
29813;DHT22;16707;48.106;11.548;2023-07-31T03:34:37;14.20;99.90
29813;DHT22;16707;48.106;11.548;2023-07-31T03:37:05;14.20;99.90
29813;DHT22;16707;48.106;11.548;2023-07-31T03:39:32;14.30;99.90
29813;DHT22;16707;48.106;11.548;2023-07-31T03:41:59;14.20;99.90
29813;DHT22;16707;48.106;11.548;2023-07-31T03:44:27;14.20;99.90
29813;DHT22;16707;48.106;11.548;2023-07-31T03:46:54;14.20;99.90
29813;DHT22;16707;48.106;11.548;2023-07-31T03:49:21;14.10;99.90
29813;DHT22;16707;48.106;11.548;2023-07-31T03:51:49;14.10;99.90
29813;DHT22;16707;48.106;11.548;2023-07-31T03:54:16;14.10;99.90
29813;DHT22;16707;48.106;11.548;2023-07-31T03:56:43;14.00;99.90
29813;DHT22;16707;48.106;11.548;2023-07-31T03:59:10;14.00;99.90
29813;DHT22;16707;48.106;11.548;2023-07-31T04:01:38;14.10;99.90
29813;DHT22;16707;48.106;11.548;2023-07-31T04:04:05;14.10;99.90
29813;DHT22;16707;48.106;11.548;2023-07-31T04:06:34;14.10;99.90
29813;DHT22;16707;48.106;11.548;2023-07-31T04:09:02;14.20;99.90
29813;DHT22;16707;48.106;11.548;2023-07-31T04:11:29;14.30;99.90
29813;DHT22;16707;48.106;11.548;2023-07-31T04:13:55;14.50;99.90
29813;DHT22;16707;48.106;11.548;2023-07-31T04:16:22;14.50;99.90
29813;DHT22;16707;48.106;11.548;2023-07-31T04:18:51;14.60;99.90
29813;DHT22;16707;48.106;11.548;2023-07-31T04:21:18;14.70;99.90
29813;DHT22;16707;48.106;11.548;2023-07-31T04:23:45;14.70;99.90
29813;DHT22;16707;48.106;11.548;2023-07-31T04:26:12;14.80;99.90
29813;DHT22;16707;48.106;11.548;2023-07-31T04:28:39;14.80;99.90
29813;DHT22;16707;48.106;11.548;2023-07-31T04:31:06;14.80;99.90
29813;DHT22;16707;48.106;11.548;2023-07-31T04:33:33;14.90;99.90
29813;DHT22;16707;48.106;11.548;2023-07-31T04:36:01;15.00;99.90
29813;DHT22;16707;48.106;11.548;2023-07-31T04:38:28;15.10;99.90
29813;DHT22;16707;48.106;11.548;2023-07-31T04:40:55;15.30;99.90
29813;DHT22;16707;48.106;11.548;2023-07-31T04:43:22;15.40;99.90
29813;DHT22;16707;48.106;11.548;2023-07-31T04:45:49;15.60;99.90
29813;DHT22;16707;48.106;11.548;2023-07-31T04:48:16;15.80;99.90
29813;DHT22;16707;48.106;11.548;2023-07-31T04:50:43;16.00;99.90
29813;DHT22;16707;48.106;11.548;2023-07-31T04:53:11;16.30;99.90
29813;DHT22;16707;48.106;11.548;2023-07-31T04:55:38;16.10;99.90
29813;DHT22;16707;48.106;11.548;2023-07-31T04:58:06;18.20;99.90
29813;DHT22;16707;48.106;11.548;2023-07-31T05:00:33;21.30;99.90
29813;DHT22;16707;48.106;11.548;2023-07-31T05:03:00;23.50;99.60
29813;DHT22;16707;48.106;11.548;2023-07-31T05:05:27;25.40;91.70
29813;DHT22;16707;48.106;11.548;2023-07-31T05:07:54;26.30;85.70
29813;DHT22;16707;48.106;11.548;2023-07-31T05:10:23;28.00;74.90
29813;DHT22;16707;48.106;11.548;2023-07-31T05:12:50;29.10;69.40
29813;DHT22;16707;48.106;11.548;2023-07-31T05:15:16;30.20;62.50
29813;DHT22;16707;48.106;11.548;2023-07-31T05:17:43;31.10;57.70
29813;DHT22;16707;48.106;11.548;2023-07-31T05:20:11;31.30;55.10
29813;DHT22;16707;48.106;11.548;2023-07-31T05:22:38;31.90;54.60
29813;DHT22;16707;48.106;11.548;2023-07-31T05:25:06;32.90;52.10
29813;DHT22;16707;48.106;11.548;2023-07-31T05:27:35;33.50;50.70
29813;DHT22;16707;48.106;11.548;2023-07-31T05:30:02;32.50;51.90
29813;DHT22;16707;48.106;11.548;2023-07-31T05:32:29;33.50;51.00
29813;DHT22;16707;48.106;11.548;2023-07-31T05:34:56;34.60;48.40
29813;DHT22;16707;48.106;11.548;2023-07-31T05:37:23;34.60;46.60
29813;DHT22;16707;48.106;11.548;2023-07-31T05:39:50;35.50;45.70
29813;DHT22;16707;48.106;11.548;2023-07-31T05:42:17;34.20;44.90
29813;DHT22;16707;48.106;11.548;2023-07-31T05:44:46;34.10;45.70
29813;DHT22;16707;48.106;11.548;2023-07-31T05:47:13;34.60;44.50
29813;DHT22;16707;48.106;11.548;2023-07-31T05:49:40;33.60;45.10
29813;DHT22;16707;48.106;11.548;2023-07-31T05:52:07;31.20;48.20
29813;DHT22;16707;48.106;11.548;2023-07-31T05:54:34;30.00;51.00
29813;DHT22;16707;48.106;11.548;2023-07-31T05:57:01;28.20;54.70
29813;DHT22;16707;48.106;11.548;2023-07-31T05:59:28;26.60;57.30
29813;DHT22;16707;48.106;11.548;2023-07-31T06:01:59;25.50;62.40
29813;DHT22;16707;48.106;11.548;2023-07-31T06:04:26;24.80;66.40
29813;DHT22;16707;48.106;11.548;2023-07-31T06:06:54;24.00;69.30
29813;DHT22;16707;48.106;11.548;2023-07-31T06:09:21;24.10;69.60
29813;DHT22;16707;48.106;11.548;2023-07-31T06:11:48;24.50;69.40
29813;DHT22;16707;48.106;11.548;2023-07-31T06:14:15;26.40;62.30
29813;DHT22;16707;48.106;11.548;2023-07-31T06:16:42;26.50;61.00
29813;DHT22;16707;48.106;11.548;2023-07-31T06:19:11;28.10;57.90
29813;DHT22;16707;48.106;11.548;2023-07-31T06:21:38;27.90;55.40
29813;DHT22;16707;48.106;11.548;2023-07-31T06:24:07;27.10;58.40
29813;DHT22;16707;48.106;11.548;2023-07-31T06:26:35;26.90;58.80
29813;DHT22;16707;48.106;11.548;2023-07-31T06:29:01;26.00;60.60
29813;DHT22;16707;48.106;11.548;2023-07-31T06:31:29;25.20;64.10
29813;DHT22;16707;48.106;11.548;2023-07-31T06:33:56;24.80;66.90
29813;DHT22;16707;48.106;11.548;2023-07-31T06:36:24;24.40;66.80
29813;DHT22;16707;48.106;11.548;2023-07-31T06:38:51;23.60;70.50
29813;DHT22;16707;48.106;11.548;2023-07-31T06:41:18;22.70;74.50
29813;DHT22;16707;48.106;11.548;2023-07-31T06:43:45;22.50;77.70
29813;DHT22;16707;48.106;11.548;2023-07-31T06:46:12;22.10;79.10
29813;DHT22;16707;48.106;11.548;2023-07-31T06:48:39;21.80;79.70
29813;DHT22;16707;48.106;11.548;2023-07-31T06:51:07;21.70;80.40
29813;DHT22;16707;48.106;11.548;2023-07-31T06:53:35;21.80;81.60
29813;DHT22;16707;48.106;11.548;2023-07-31T06:56:03;22.10;80.60
29813;DHT22;16707;48.106;11.548;2023-07-31T06:58:30;22.20;81.90
29813;DHT22;16707;48.106;11.548;2023-07-31T07:00:57;22.20;81.50
29813;DHT22;16707;48.106;11.548;2023-07-31T07:03:24;22.60;80.60
29813;DHT22;16707;48.106;11.548;2023-07-31T07:05:51;22.80;79.10
29813;DHT22;16707;48.106;11.548;2023-07-31T07:08:18;23.20;77.30
29813;DHT22;16707;48.106;11.548;2023-07-31T07:10:46;22.90;77.30
29813;DHT22;16707;48.106;11.548;2023-07-31T07:13:13;22.90;77.70
29813;DHT22;16707;48.106;11.548;2023-07-31T07:15:40;23.00;76.10
29813;DHT22;16707;48.106;11.548;2023-07-31T07:18:07;23.30;76.00
29813;DHT22;16707;48.106;11.548;2023-07-31T07:20:36;23.90;73.20
29813;DHT22;16707;48.106;11.548;2023-07-31T07:23:03;24.30;70.70
29813;DHT22;16707;48.106;11.548;2023-07-31T07:25:30;24.70;69.60
29813;DHT22;16707;48.106;11.548;2023-07-31T07:27:58;24.70;69.20
29813;DHT22;16707;48.106;11.548;2023-07-31T07:30:25;24.90;67.80
29813;DHT22;16707;48.106;11.548;2023-07-31T07:32:52;24.80;67.20
29813;DHT22;16707;48.106;11.548;2023-07-31T07:35:19;24.60;65.30
29813;DHT22;16707;48.106;11.548;2023-07-31T07:37:48;24.60;67.70
29813;DHT22;16707;48.106;11.548;2023-07-31T07:40:16;24.40;69.50
29813;DHT22;16707;48.106;11.548;2023-07-31T07:42:43;24.20;68.30
29813;DHT22;16707;48.106;11.548;2023-07-31T07:45:11;24.20;70.50
29813;DHT22;16707;48.106;11.548;2023-07-31T07:47:40;24.50;68.80
29813;DHT22;16707;48.106;11.548;2023-07-31T07:50:08;24.20;68.30
29813;DHT22;16707;48.106;11.548;2023-07-31T07:52:36;23.80;68.50
29813;DHT22;16707;48.106;11.548;2023-07-31T07:55:03;23.80;68.20
29813;DHT22;16707;48.106;11.548;2023-07-31T07:57:31;24.10;67.50
29813;DHT22;16707;48.106;11.548;2023-07-31T07:59:58;24.10;68.10
29813;DHT22;16707;48.106;11.548;2023-07-31T08:02:26;24.50;67.40
29813;DHT22;16707;48.106;11.548;2023-07-31T08:04:53;24.40;65.30
29813;DHT22;16707;48.106;11.548;2023-07-31T08:07:20;24.40;67.10
29813;DHT22;16707;48.106;11.548;2023-07-31T08:09:47;24.50;66.30
29813;DHT22;16707;48.106;11.548;2023-07-31T08:12:14;24.90;65.40
29813;DHT22;16707;48.106;11.548;2023-07-31T08:14:41;24.80;65.30
29813;DHT22;16707;48.106;11.548;2023-07-31T08:17:08;24.40;64.50
29813;DHT22;16707;48.106;11.548;2023-07-31T08:19:36;24.20;64.70
29813;DHT22;16707;48.106;11.548;2023-07-31T08:22:03;23.80;67.70
29813;DHT22;16707;48.106;11.548;2023-07-31T08:24:31;23.90;68.00
29813;DHT22;16707;48.106;11.548;2023-07-31T08:26:58;24.40;67.20
29813;DHT22;16707;48.106;11.548;2023-07-31T08:29:25;24.90;65.70
29813;DHT22;16707;48.106;11.548;2023-07-31T08:31:52;25.30;64.80
29813;DHT22;16707;48.106;11.548;2023-07-31T08:34:19;25.10;61.60
29813;DHT22;16707;48.106;11.548;2023-07-31T08:36:47;24.70;62.40
29813;DHT22;16707;48.106;11.548;2023-07-31T08:39:14;24.40;64.00
29813;DHT22;16707;48.106;11.548;2023-07-31T08:41:41;24.40;64.50
29813;DHT22;16707;48.106;11.548;2023-07-31T08:44:08;24.40;64.10
29813;DHT22;16707;48.106;11.548;2023-07-31T08:46:37;24.40;65.10
29813;DHT22;16707;48.106;11.548;2023-07-31T08:49:05;24.20;64.70
29813;DHT22;16707;48.106;11.548;2023-07-31T08:51:34;24.10;66.80
29813;DHT22;16707;48.106;11.548;2023-07-31T08:54:03;24.00;67.20
29813;DHT22;16707;48.106;11.548;2023-07-31T08:56:31;23.80;68.60
29813;DHT22;16707;48.106;11.548;2023-07-31T08:59:02;23.10;69.50
29813;DHT22;16707;48.106;11.548;2023-07-31T09:01:30;22.80;71.00
29813;DHT22;16707;48.106;11.548;2023-07-31T09:04:01;22.70;73.10
29813;DHT22;16707;48.106;11.548;2023-07-31T09:06:31;22.70;73.50
29813;DHT22;16707;48.106;11.548;2023-07-31T09:08:58;22.80;72.90
29813;DHT22;16707;48.106;11.548;2023-07-31T09:11:27;23.20;71.90
29813;DHT22;16707;48.106;11.548;2023-07-31T09:13:56;23.40;69.50
29813;DHT22;16707;48.106;11.548;2023-07-31T09:16:27;23.90;71.00
29813;DHT22;16707;48.106;11.548;2023-07-31T09:18:56;23.90;67.70
29813;DHT22;16707;48.106;11.548;2023-07-31T09:21:24;23.90;66.60
29813;DHT22;16707;48.106;11.548;2023-07-31T09:23:54;23.90;66.60
29813;DHT22;16707;48.106;11.548;2023-07-31T09:26:33;24.30;65.80
29813;DHT22;16707;48.106;11.548;2023-07-31T09:29:01;24.60;65.20
29813;DHT22;16707;48.106;11.548;2023-07-31T09:31:39;24.60;62.70
29813;DHT22;16707;48.106;11.548;2023-07-31T09:34:06;25.00;63.00
29813;DHT22;16707;48.106;11.548;2023-07-31T09:36:40;25.20;61.10
29813;DHT22;16707;48.106;11.548;2023-07-31T09:39:09;25.10;64.00
29813;DHT22;16707;48.106;11.548;2023-07-31T09:41:39;25.30;63.10
29813;DHT22;16707;48.106;11.548;2023-07-31T09:44:07;25.20;61.00
29813;DHT22;16707;48.106;11.548;2023-07-31T09:46:35;25.30;63.20
29813;DHT22;16707;48.106;11.548;2023-07-31T09:49:04;25.10;62.30
29813;DHT22;16707;48.106;11.548;2023-07-31T09:51:31;25.00;63.60
29813;DHT22;16707;48.106;11.548;2023-07-31T09:54:04;25.10;64.00
29813;DHT22;16707;48.106;11.548;2023-07-31T09:56:42;25.10;62.80
29813;DHT22;16707;48.106;11.548;2023-07-31T09:59:12;25.00;62.40
29813;DHT22;16707;48.106;11.548;2023-07-31T10:01:39;24.70;63.00
29813;DHT22;16707;48.106;11.548;2023-07-31T10:04:08;24.90;64.80
29813;DHT22;16707;48.106;11.548;2023-07-31T10:06:36;24.90;62.30
29813;DHT22;16707;48.106;11.548;2023-07-31T10:09:06;24.60;62.80
29813;DHT22;16707;48.106;11.548;2023-07-31T10:11:41;24.40;64.70
29813;DHT22;16707;48.106;11.548;2023-07-31T10:14:09;24.30;67.10
29813;DHT22;16707;48.106;11.548;2023-07-31T10:16:38;24.40;64.70
29813;DHT22;16707;48.106;11.548;2023-07-31T10:19:06;24.60;62.00
29813;DHT22;16707;48.106;11.548;2023-07-31T10:21:34;24.60;63.60
29813;DHT22;16707;48.106;11.548;2023-07-31T10:24:03;24.80;62.40
29813;DHT22;16707;48.106;11.548;2023-07-31T10:26:32;24.40;60.80
29813;DHT22;16707;48.106;11.548;2023-07-31T10:29:01;24.20;62.20
29813;DHT22;16707;48.106;11.548;2023-07-31T10:31:28;24.10;63.80
29813;DHT22;16707;48.106;11.548;2023-07-31T10:33:57;24.00;63.20
29813;DHT22;16707;48.106;11.548;2023-07-31T10:36:26;24.40;63.70
29813;DHT22;16707;48.106;11.548;2023-07-31T10:38:55;25.10;61.40
29813;DHT22;16707;48.106;11.548;2023-07-31T10:41:28;25.50;58.70
29813;DHT22;16707;48.106;11.548;2023-07-31T10:43:57;26.00;57.70
29813;DHT22;16707;48.106;11.548;2023-07-31T10:46:29;25.70;57.00
29813;DHT22;16707;48.106;11.548;2023-07-31T10:49:00;25.70;57.90
29813;DHT22;16707;48.106;11.548;2023-07-31T10:51:35;25.60;57.40
29813;DHT22;16707;48.106;11.548;2023-07-31T10:54:12;25.90;57.40
29813;DHT22;16707;48.106;11.548;2023-07-31T10:56:40;25.60;56.70
29813;DHT22;16707;48.106;11.548;2023-07-31T10:59:11;25.50;56.80
29813;DHT22;16707;48.106;11.548;2023-07-31T11:01:53;25.00;56.30
29813;DHT22;16707;48.106;11.548;2023-07-31T11:04:23;25.00;58.60
29813;DHT22;16707;48.106;11.548;2023-07-31T11:06:56;24.80;59.30
29813;DHT22;16707;48.106;11.548;2023-07-31T11:09:27;24.80;59.30
29813;DHT22;16707;48.106;11.548;2023-07-31T11:11:55;24.60;59.60
29813;DHT22;16707;48.106;11.548;2023-07-31T11:14:22;24.40;61.90
29813;DHT22;16707;48.106;11.548;2023-07-31T11:16:50;24.50;62.10
29813;DHT22;16707;48.106;11.548;2023-07-31T11:19:22;24.50;61.20
29813;DHT22;16707;48.106;11.548;2023-07-31T11:21:51;24.70;61.40
29813;DHT22;16707;48.106;11.548;2023-07-31T11:24:18;24.90;62.90
29813;DHT22;16707;48.106;11.548;2023-07-31T11:26:50;24.90;59.90
29813;DHT22;16707;48.106;11.548;2023-07-31T11:29:17;25.10;59.60
29813;DHT22;16707;48.106;11.548;2023-07-31T11:31:44;25.30;58.90
29813;DHT22;16707;48.106;11.548;2023-07-31T11:34:12;25.50;57.10
29813;DHT22;16707;48.106;11.548;2023-07-31T11:36:40;25.30;58.10
29813;DHT22;16707;48.106;11.548;2023-07-31T11:39:08;25.40;58.50
29813;DHT22;16707;48.106;11.548;2023-07-31T11:41:36;25.50;58.20
29813;DHT22;16707;48.106;11.548;2023-07-31T11:44:07;25.10;57.10
29813;DHT22;16707;48.106;11.548;2023-07-31T11:46:34;24.80;60.30
29813;DHT22;16707;48.106;11.548;2023-07-31T11:49:02;24.60;60.30
29813;DHT22;16707;48.106;11.548;2023-07-31T11:51:29;24.30;61.50
29813;DHT22;16707;48.106;11.548;2023-07-31T11:54:00;24.20;63.50
29813;DHT22;16707;48.106;11.548;2023-07-31T11:56:28;24.30;64.90
29813;DHT22;16707;48.106;11.548;2023-07-31T11:58:57;24.50;64.60
29813;DHT22;16707;48.106;11.548;2023-07-31T12:01:24;24.30;61.90
29813;DHT22;16707;48.106;11.548;2023-07-31T12:03:53;24.20;61.00
29813;DHT22;16707;48.106;11.548;2023-07-31T12:06:21;24.20;62.30
29813;DHT22;16707;48.106;11.548;2023-07-31T12:08:48;24.50;61.50
29813;DHT22;16707;48.106;11.548;2023-07-31T12:11:16;24.40;58.60
29813;DHT22;16707;48.106;11.548;2023-07-31T12:13:44;24.50;59.00
29813;DHT22;16707;48.106;11.548;2023-07-31T12:16:11;24.70;58.80
29813;DHT22;16707;48.106;11.548;2023-07-31T12:18:39;24.90;58.20
29813;DHT22;16707;48.106;11.548;2023-07-31T12:21:07;24.90;57.40
29813;DHT22;16707;48.106;11.548;2023-07-31T12:23:37;24.80;57.90
29813;DHT22;16707;48.106;11.548;2023-07-31T12:26:08;24.50;58.30
29813;DHT22;16707;48.106;11.548;2023-07-31T12:28:39;24.70;58.60
29813;DHT22;16707;48.106;11.548;2023-07-31T12:31:09;25.00;58.30
29813;DHT22;16707;48.106;11.548;2023-07-31T12:33:38;25.50;58.00
29813;DHT22;16707;48.106;11.548;2023-07-31T12:36:08;25.60;56.20
29813;DHT22;16707;48.106;11.548;2023-07-31T12:38:35;25.60;55.70
29813;DHT22;16707;48.106;11.548;2023-07-31T12:41:02;25.50;57.20
29813;DHT22;16707;48.106;11.548;2023-07-31T12:43:30;25.90;57.80
29813;DHT22;16707;48.106;11.548;2023-07-31T12:45:59;25.90;55.60
29813;DHT22;16707;48.106;11.548;2023-07-31T12:48:26;25.90;55.00
29813;DHT22;16707;48.106;11.548;2023-07-31T12:50:53;25.60;55.00
29813;DHT22;16707;48.106;11.548;2023-07-31T12:53:20;25.50;55.40
29813;DHT22;16707;48.106;11.548;2023-07-31T12:55:47;25.40;55.80
29813;DHT22;16707;48.106;11.548;2023-07-31T12:58:14;25.60;56.20
29813;DHT22;16707;48.106;11.548;2023-07-31T13:00:41;25.80;55.40
29813;DHT22;16707;48.106;11.548;2023-07-31T13:03:10;25.70;55.80
29813;DHT22;16707;48.106;11.548;2023-07-31T13:05:37;25.60;56.70
29813;DHT22;16707;48.106;11.548;2023-07-31T13:08:04;25.80;56.40
29813;DHT22;16707;48.106;11.548;2023-07-31T13:10:31;25.70;54.70
29813;DHT22;16707;48.106;11.548;2023-07-31T13:12:58;25.90;54.50
29813;DHT22;16707;48.106;11.548;2023-07-31T13:15:25;26.20;54.60
29813;DHT22;16707;48.106;11.548;2023-07-31T13:17:52;26.20;53.70
29813;DHT22;16707;48.106;11.548;2023-07-31T13:20:20;26.10;53.50
29813;DHT22;16707;48.106;11.548;2023-07-31T13:22:47;25.90;54.90
29813;DHT22;16707;48.106;11.548;2023-07-31T13:25:14;26.30;56.30
29813;DHT22;16707;48.106;11.548;2023-07-31T13:27:41;26.70;53.70
29813;DHT22;16707;48.106;11.548;2023-07-31T13:30:08;26.40;53.70
29813;DHT22;16707;48.106;11.548;2023-07-31T13:32:35;26.40;54.90
29813;DHT22;16707;48.106;11.548;2023-07-31T13:35:05;26.20;53.80
29813;DHT22;16707;48.106;11.548;2023-07-31T13:37:34;26.00;54.10
29813;DHT22;16707;48.106;11.548;2023-07-31T13:40:01;25.90;55.50
29813;DHT22;16707;48.106;11.548;2023-07-31T13:42:30;26.10;54.50
29813;DHT22;16707;48.106;11.548;2023-07-31T13:44:57;26.40;55.70
29813;DHT22;16707;48.106;11.548;2023-07-31T13:47:24;26.70;54.40
29813;DHT22;16707;48.106;11.548;2023-07-31T13:49:51;27.00;53.30
29813;DHT22;16707;48.106;11.548;2023-07-31T13:52:18;27.00;53.90
29813;DHT22;16707;48.106;11.548;2023-07-31T13:54:47;26.60;53.50
29813;DHT22;16707;48.106;11.548;2023-07-31T13:57:14;26.10;54.20
29813;DHT22;16707;48.106;11.548;2023-07-31T13:59:41;25.90;55.20
29813;DHT22;16707;48.106;11.548;2023-07-31T14:02:08;25.70;55.50
29813;DHT22;16707;48.106;11.548;2023-07-31T14:04:35;25.70;55.60
29813;DHT22;16707;48.106;11.548;2023-07-31T14:07:02;25.90;55.80
29813;DHT22;16707;48.106;11.548;2023-07-31T14:09:30;26.00;55.40
29813;DHT22;16707;48.106;11.548;2023-07-31T14:11:58;26.30;56.00
29813;DHT22;16707;48.106;11.548;2023-07-31T14:14:25;26.30;54.10
29813;DHT22;16707;48.106;11.548;2023-07-31T14:16:52;26.00;54.20
29813;DHT22;16707;48.106;11.548;2023-07-31T14:19:19;25.80;54.50
29813;DHT22;16707;48.106;11.548;2023-07-31T14:21:46;25.80;54.90
29813;DHT22;16707;48.106;11.548;2023-07-31T14:24:13;25.80;54.00
29813;DHT22;16707;48.106;11.548;2023-07-31T14:26:40;25.90;54.60
29813;DHT22;16707;48.106;11.548;2023-07-31T14:29:09;25.90;54.10
29813;DHT22;16707;48.106;11.548;2023-07-31T14:31:36;25.90;53.30
29813;DHT22;16707;48.106;11.548;2023-07-31T14:34:03;25.80;53.80
29813;DHT22;16707;48.106;11.548;2023-07-31T14:36:30;25.90;54.40
29813;DHT22;16707;48.106;11.548;2023-07-31T14:38:57;26.40;54.10
29813;DHT22;16707;48.106;11.548;2023-07-31T14:41:24;26.70;52.70
29813;DHT22;16707;48.106;11.548;2023-07-31T14:43:51;26.50;52.60
29813;DHT22;16707;48.106;11.548;2023-07-31T14:46:19;26.40;53.30
29813;DHT22;16707;48.106;11.548;2023-07-31T14:48:46;26.50;55.50
29813;DHT22;16707;48.106;11.548;2023-07-31T14:51:13;26.70;55.70
29813;DHT22;16707;48.106;11.548;2023-07-31T14:53:42;26.60;54.30
29813;DHT22;16707;48.106;11.548;2023-07-31T14:56:09;26.30;54.00
29813;DHT22;16707;48.106;11.548;2023-07-31T14:58:36;26.30;52.60
29813;DHT22;16707;48.106;11.548;2023-07-31T15:01:03;26.20;54.10
29813;DHT22;16707;48.106;11.548;2023-07-31T15:03:31;26.20;54.40
29813;DHT22;16707;48.106;11.548;2023-07-31T15:05:58;26.30;54.40
29813;DHT22;16707;48.106;11.548;2023-07-31T15:08:25;26.40;54.30
29813;DHT22;16707;48.106;11.548;2023-07-31T15:10:54;26.40;55.00
29813;DHT22;16707;48.106;11.548;2023-07-31T15:13:23;26.50;53.60
29813;DHT22;16707;48.106;11.548;2023-07-31T15:15:50;26.30;53.60
29813;DHT22;16707;48.106;11.548;2023-07-31T15:18:17;26.40;54.40
29813;DHT22;16707;48.106;11.548;2023-07-31T15:20:45;26.20;54.90
29813;DHT22;16707;48.106;11.548;2023-07-31T15:23:12;26.10;54.30